Time;durP1;ratioP1;P1;durP2;ratioP2;P2;SDS_P1;SDS_P2;PMS_P1;PMS_P2;Temp;Humidity;BMP_temperature;BMP_pressure;BME280_temperature;BME280_humidity;BME280_pressure;Samples;Min_cycle;Max_cycle;Signal;HPM_P1;HPM_P2
2022/04/28 00:00:19;;;;;;;0.50;0.50;;;9.80;99.90;;;;;;5227961;28;20029;-79
2022/04/28 00:02:53;;;;;;;0.70;0.70;;;9.90;99.90;;;;;;5228211;28;20034;-79
2022/04/28 00:05:27;;;;;;;;;;;9.90;99.90;;;;;;5230791;28;20040;-78
2022/04/28 00:08:01;;;;;;;0.40;0.40;;;9.80;99.90;;;;;;5248222;28;20068;-79
2022/04/28 00:10:35;;;;;;;0.63;0.63;;;9.90;99.90;;;;;;5249167;28;20038;-79
2022/04/28 00:13:08;;;;;;;0.40;0.40;;;9.80;99.90;;;;;;5231037;28;20047;-79
2022/04/28 00:15:40;;;;;;;0.30;0.30;;;9.80;99.90;;;;;;5248317;28;20470;-78
2022/04/28 00:18:17;;;;;;;0.40;0.40;;;9.70;99.90;;;;;;5244218;28;20021;-78
2022/04/28 00:20:49;;;;;;;0.65;0.65;;;9.80;99.90;;;;;;5233298;28;20386;-79
2022/04/28 00:23:22;;;;;;;0.50;0.50;;;9.70;99.90;;;;;;5247836;28;20020;-78
2022/04/28 00:25:53;;;;;;;0.80;0.80;;;9.70;99.90;;;;;;5249853;28;20482;-80
2022/04/28 00:28:27;;;;;;;1.48;1.38;;;9.60;99.90;;;;;;5230939;28;20041;-79
2022/04/28 00:30:59;;;;;;;0.90;0.90;;;9.70;99.90;;;;;;5231508;28;20020;-78
2022/04/28 00:33:30;;;;;;;0.60;0.60;;;9.70;99.90;;;;;;5214522;28;20037;-79
2022/04/28 00:36:03;;;;;;;0.98;0.90;;;9.60;99.90;;;;;;5231749;28;20020;-77
2022/04/28 00:38:37;;;;;;;0.60;0.60;;;9.60;99.90;;;;;;5247875;28;20016;-80
2022/04/28 00:41:08;;;;;;;0.40;0.40;;;9.50;99.90;;;;;;5248928;28;20024;-79
2022/04/28 00:43:51;;;;;;;0.82;0.82;;;9.60;99.90;;;;;;5232000;28;20036;-79
2022/04/28 00:46:24;;;;;;;0.85;0.85;;;9.50;99.90;;;;;;5249701;28;20024;-75
2022/04/28 00:51:48;;;;;;;0.70;0.70;;;9.50;99.90;;;;;;5249244;28;20035;-76
2022/04/28 00:54:19;;;;;;;;;;;9.50;99.90;;;;;;5231536;28;20024;-78
2022/04/28 00:56:55;;;;;;;0.40;0.40;;;9.50;99.90;;;;;;5248886;28;19908;-75
2022/04/28 00:59:29;;;;;;;1.52;1.42;;;9.50;99.90;;;;;;5228372;28;20037;-77
2022/04/28 01:02:00;;;;;;;1.25;1.25;;;9.40;99.90;;;;;;5208349;28;20192;-76
2022/04/28 01:04:34;;;;;;;0.70;0.70;;;9.40;99.90;;;;;;5230253;28;20287;-80
2022/04/28 01:07:08;;;;;;;1.30;1.30;;;9.40;99.90;;;;;;5227238;28;20034;-79
2022/04/28 01:09:41;;;;;;;0.60;0.60;;;9.30;99.90;;;;;;5216318;28;20040;-80
2022/04/28 01:12:15;;;;;;;0.60;0.60;;;9.30;99.90;;;;;;5225909;28;20037;-80
2022/04/28 01:14:46;;;;;;;0.68;0.68;;;9.20;99.90;;;;;;5224881;28;20047;-80
2022/04/28 01:17:21;;;;;;;1.25;0.80;;;9.30;99.90;;;;;;5246621;28;20040;-80
2022/04/28 01:19:52;;;;;;;0.65;0.65;;;9.30;99.90;;;;;;5249834;28;20026;-79
2022/04/28 01:22:25;;;;;;;0.60;0.60;;;9.40;99.90;;;;;;5253149;28;20030;-78
2022/04/28 01:25:04;;;;;;;0.95;0.88;;;9.40;99.90;;;;;;5252134;28;20033;-79
2022/04/28 01:27:37;;;;;;;0.70;0.70;;;9.40;99.90;;;;;;5252978;28;20036;-79
2022/04/28 01:30:20;;;;;;;0.80;0.80;;;9.30;99.90;;;;;;5234778;28;20500;-78
2022/04/28 01:32:56;;;;;;;0.52;0.52;;;9.40;99.90;;;;;;5234852;28;20031;-78
2022/04/28 01:35:27;;;;;;;1.10;1.10;;;9.40;99.90;;;;;;5234965;28;20040;-79
2022/04/28 01:38:02;;;;;;;0.60;0.60;;;9.40;99.90;;;;;;5233796;28;20030;-77
2022/04/28 01:40:33;;;;;;;1.10;1.10;;;9.30;99.90;;;;;;5235313;28;20471;-78
2022/04/28 01:43:04;;;;;;;0.50;0.50;;;9.40;99.90;;;;;;5234872;28;20358;-78
2022/04/28 01:45:38;;;;;;;0.45;0.45;;;9.30;99.90;;;;;;5233928;28;20039;-77
2022/04/28 01:48:10;;;;;;;0.70;0.70;;;9.30;99.90;;;;;;5234310;28;20040;-77
2022/04/28 01:56:25;;;;;;;0.45;0.45;;;9.30;99.90;;;;;;5235010;28;20042;-79
2022/04/28 01:58:56;;;;;;;0.65;0.65;;;9.30;99.90;;;;;;5241335;28;20040;-77
2022/04/28 02:01:28;;;;;;;0.50;0.50;;;9.30;99.90;;;;;;5249304;28;20032;-80
2022/04/28 02:04:01;;;;;;;0.50;0.50;;;9.30;99.90;;;;;;5247087;28;20059;-78
2022/04/28 02:06:35;;;;;;;0.70;0.70;;;9.20;99.90;;;;;;5234415;28;20485;-78
2022/04/28 02:09:06;;;;;;;0.77;0.77;;;9.20;99.90;;;;;;5231383;28;20024;-79
2022/04/28 02:11:38;;;;;;;0.60;0.60;;;9.20;99.90;;;;;;5232099;28;20032;-79
2022/04/28 02:14:14;;;;;;;1.55;1.02;;;9.20;99.90;;;;;;5230840;28;20046;-80
2022/04/28 02:16:45;;;;;;;0.73;0.73;;;9.20;99.90;;;;;;5248967;28;20028;-79
2022/04/28 02:19:19;;;;;;;0.70;0.70;;;9.20;99.90;;;;;;5249798;28;20025;-78
2022/04/28 02:21:54;;;;;;;0.90;0.90;;;9.10;99.90;;;;;;5211451;28;20035;-79
2022/04/28 02:24:27;;;;;;;0.80;0.80;;;9.30;99.90;;;;;;5249515;28;20825;-81
2022/04/28 02:26:58;;;;;;;0.97;0.97;;;9.20;99.90;;;;;;5227831;28;20033;-80
2022/04/28 02:29:30;;;;;;;0.88;0.88;;;9.20;99.90;;;;;;5228426;28;20021;-80
2022/04/28 02:32:02;;;;;;;0.75;0.75;;;9.20;99.90;;;;;;5228692;28;20078;-80
2022/04/28 02:34:34;;;;;;;0.55;0.55;;;9.10;99.90;;;;;;5228164;28;20063;-80
2022/04/28 02:37:06;;;;;;;0.85;0.85;;;9.10;99.90;;;;;;5209007;28;20025;-80
2022/04/28 02:39:40;;;;;;;1.02;1.02;;;9.10;99.90;;;;;;5223899;28;20047;-80
2022/04/28 02:42:16;;;;;;;0.80;0.80;;;9.10;99.90;;;;;;5211391;28;20192;-78
2022/04/28 02:44:47;;;;;;;0.60;0.60;;;9.10;99.90;;;;;;5225662;28;20032;-77
2022/04/28 02:47:19;;;;;;;0.77;0.77;;;9.10;99.90;;;;;;5231363;28;20383;-79
2022/04/28 02:49:52;;;;;;;0.50;0.50;;;9.00;99.90;;;;;;5249016;28;20024;-79
2022/04/28 02:52:24;;;;;;;1.10;1.10;;;9.00;99.90;;;;;;5231130;28;20031;-78
2022/04/28 02:54:55;;;;;;;0.70;0.70;;;9.00;99.90;;;;;;5216622;28;20051;-79
2022/04/28 02:57:29;;;;;;;0.73;0.73;;;8.90;99.90;;;;;;5224157;28;20027;-77
2022/04/28 03:00:06;;;;;;;0.55;0.55;;;8.90;99.90;;;;;;5231580;28;20047;-78
2022/04/28 03:02:37;;;;;;;0.60;0.60;;;8.90;99.90;;;;;;5250382;28;20029;-80
2022/04/28 03:05:14;;;;;;;1.15;1.15;;;8.90;99.90;;;;;;5238662;28;20968;-79
2022/04/28 03:10:55;;;;;;;0.60;0.60;;;8.80;99.90;;;;;;5248158;28;20023;-79
2022/04/28 03:13:41;;;;;;;0.57;0.57;;;8.80;99.90;;;;;;5247120;28;20037;-79
2022/04/28 03:16:15;;;;;;;0.50;0.50;;;8.80;99.90;;;;;;5230380;28;20032;-77
2022/04/28 03:18:46;;;;;;;0.63;0.63;;;8.80;99.90;;;;;;5231298;28;20390;-79
2022/04/28 03:21:20;;;;;;;0.60;0.60;;;8.80;99.90;;;;;;5247683;28;20326;-80
2022/04/28 03:23:54;;;;;;;0.80;0.80;;;8.80;99.90;;;;;;5248265;28;20027;-77
2022/04/28 03:26:28;;;;;;;0.60;0.60;;;8.80;99.90;;;;;;5246090;28;20032;-78
2022/04/28 03:29:00;;;;;;;1.42;1.42;;;8.80;99.90;;;;;;5229298;28;20371;-80
2022/04/28 03:31:31;;;;;;;0.63;0.63;;;8.80;99.90;;;;;;5230528;28;20054;-77
2022/04/28 03:34:05;;;;;;;0.70;0.70;;;8.80;99.90;;;;;;5248103;28;20038;-78
2022/04/28 03:36:51;;;;;;;0.68;0.68;;;8.80;99.90;;;;;;5248894;28;20390;-78
2022/04/28 03:39:22;;;;;;;0.70;0.70;;;8.70;99.90;;;;;;5229136;28;20025;-78
2022/04/28 03:41:57;;;;;;;0.63;0.63;;;8.70;99.90;;;;;;5246665;28;20477;-77
2022/04/28 03:44:29;;;;;;;0.50;0.50;;;8.70;99.90;;;;;;5229533;28;20032;-78
2022/04/28 03:47:05;;;;;;;0.70;0.70;;;8.70;99.90;;;;;;5247386;28;20016;-78
2022/04/28 03:49:37;;;;;;;1.02;1.02;;;8.70;99.90;;;;;;5232035;28;20028;-80
2022/04/28 03:52:08;;;;;;;0.70;0.70;;;8.70;99.90;;;;;;5228183;28;20041;-78
2022/04/28 03:54:46;;;;;;;0.60;0.60;;;8.70;99.90;;;;;;5228080;28;20024;-79
2022/04/28 03:57:19;;;;;;;1.20;1.20;;;8.70;99.90;;;;;;5238598;28;20036;-78
2022/04/28 03:59:53;;;;;;;0.50;0.50;;;8.70;99.90;;;;;;5231220;28;20024;-78
2022/04/28 04:02:25;;;;;;;0.90;0.90;;;8.70;99.90;;;;;;5248220;28;20248;-79
2022/04/28 04:04:56;;;;;;;1.00;1.00;;;8.80;99.90;;;;;;5220002;28;20512;-79
2022/04/28 04:07:32;;;;;;;0.98;0.98;;;8.90;99.90;;;;;;5230309;28;20036;-78
2022/04/28 04:10:07;;;;;;;1.55;1.08;;;8.90;99.90;;;;;;5229029;28;20026;-78
2022/04/28 04:12:38;;;;;;;0.60;0.60;;;9.00;99.90;;;;;;5228477;28;20032;-78
2022/04/28 04:15:10;;;;;;;0.70;0.70;;;9.00;99.90;;;;;;5247754;28;20025;-79
2022/04/28 04:17:48;;;;;;;0.68;0.68;;;9.10;99.90;;;;;;5225974;28;20452;-77
2022/04/28 04:20:22;;;;;;;0.85;0.85;;;9.20;99.90;;;;;;5268485;28;20990;-77
2022/04/28 04:22:53;;;;;;;0.70;0.70;;;9.20;99.90;;;;;;5268615;28;20023;-77
2022/04/28 04:25:24;;;;;;;0.50;0.50;;;9.30;99.90;;;;;;5260971;28;20033;-78
2022/04/28 04:27:55;;;;;;;0.68;0.68;;;9.40;99.90;;;;;;5259901;28;20032;-76
2022/04/28 04:33:16;;;;;;;0.60;0.60;;;9.50;99.90;;;;;;5263037;28;20022;-77
2022/04/28 04:35:47;;;;;;;1.15;1.13;;;9.60;99.90;;;;;;5260362;28;20493;-78
2022/04/28 04:38:19;;;;;;;0.98;0.98;;;9.60;99.90;;;;;;5228062;28;20028;-79
2022/04/28 04:40:53;;;;;;;1.08;1.08;;;9.60;99.90;;;;;;5243517;28;20120;-77
2022/04/28 04:43:24;;;;;;;0.70;0.70;;;9.70;99.90;;;;;;5229004;28;20025;-79
2022/04/28 04:45:55;;;;;;;0.60;0.60;;;9.80;99.90;;;;;;5246665;28;20063;-79
2022/04/28 04:48:27;;;;;;;1.27;1.23;;;9.90;99.90;;;;;;5247072;28;20613;-76
2022/04/28 04:51:06;;;;;;;1.10;1.10;;;9.80;99.90;;;;;;5245750;28;20161;-78
2022/04/28 04:53:39;;;;;;;0.90;0.90;;;9.90;99.90;;;;;;5245955;28;20533;-79
2022/04/28 04:56:11;;;;;;;0.68;0.68;;;9.90;99.90;;;;;;5241001;28;20039;-78
2022/04/28 04:58:44;;;;;;;1.33;1.23;;;10.00;99.90;;;;;;5226478;28;20536;-80
2022/04/28 05:01:15;;;;;;;1.02;1.02;;;10.00;99.90;;;;;;5225348;28;20448;-78
2022/04/28 05:03:49;;;;;;;0.60;0.60;;;10.10;99.90;;;;;;5226753;28;20032;-78
2022/04/28 05:06:23;;;;;;;0.60;0.60;;;10.20;99.90;;;;;;5222030;28;20107;-79
2022/04/28 05:08:55;;;;;;;0.73;0.73;;;10.30;99.90;;;;;;5243366;28;20413;-77
2022/04/28 05:11:34;;;;;;;0.50;0.50;;;10.30;99.90;;;;;;5226477;28;20351;-79
2022/04/28 05:14:05;;;;;;;1.77;1.55;;;10.40;99.90;;;;;;5244801;28;20432;-79
2022/04/28 05:16:42;;;;;;;0.88;0.88;;;10.50;99.90;;;;;;5243856;28;20021;-79
2022/04/28 05:19:13;;;;;;;0.63;0.63;;;10.60;99.90;;;;;;5239590;28;20024;-78
2022/04/28 05:21:44;;;;;;;0.80;0.80;;;10.60;99.90;;;;;;5211278;28;20043;-78
2022/04/28 05:24:18;;;;;;;0.47;0.47;;;10.60;99.90;;;;;;5224233;28;20321;-78
2022/04/28 05:26:50;;;;;;;0.70;0.70;;;10.80;99.90;;;;;;5228297;28;20035;-79
2022/04/28 05:29:21;;;;;;;0.50;0.50;;;10.80;99.90;;;;;;5239246;28;20032;-77
2022/04/28 05:31:52;;;;;;;1.00;1.00;;;10.90;99.90;;;;;;5202563;28;20318;-76
2022/04/28 05:34:23;;;;;;;0.60;0.60;;;11.10;99.90;;;;;;5221919;28;20241;-78
2022/04/28 05:36:58;;;;;;;0.60;0.60;;;11.10;99.90;;;;;;5237674;28;20024;-79
2022/04/28 05:39:39;;;;;;;0.95;0.95;;;11.10;99.90;;;;;;5222387;28;20345;-78
2022/04/28 05:42:11;;;;;;;1.20;1.20;;;11.10;99.90;;;;;;5221764;28;20239;-80
2022/04/28 05:47:34;;;;;;;0.50;0.50;;;11.30;99.90;;;;;;5242687;28;20222;-77
2022/04/28 05:50:07;;;;;;;0.50;0.50;;;11.30;99.90;;;;;;5242947;28;20023;-78
2022/04/28 05:52:41;;;;;;;1.05;1.05;;;11.40;99.90;;;;;;5225271;28;20034;-78
2022/04/28 05:55:17;;;;;;;1.35;1.33;;;11.50;99.90;;;;;;5224742;28;20070;-76
2022/04/28 05:57:51;;;;;;;1.00;1.00;;;11.60;99.90;;;;;;5242702;28;20028;-75
2022/04/28 06:00:25;;;;;;;0.88;0.88;;;11.60;99.90;;;;;;5242386;28;20028;-78
2022/04/28 06:02:57;;;;;;;;;;;11.70;99.90;;;;;;5228446;28;20029;-79
2022/04/28 06:05:31;;;;;;;0.77;0.77;;;11.60;99.90;;;;;;5201051;28;19931;-77
2022/04/28 06:08:05;;;;;;;0.88;0.88;;;11.70;99.90;;;;;;5229656;28;20024;-79
2022/04/28 06:10:41;;;;;;;0.98;0.98;;;11.70;99.90;;;;;;5247335;28;20038;-79
2022/04/28 06:13:12;;;;;;;0.90;0.90;;;11.60;99.90;;;;;;5246680;28;20025;-78
2022/04/28 06:15:46;;;;;;;0.80;0.80;;;11.70;99.90;;;;;;5247484;28;20021;-80
2022/04/28 06:18:20;;;;;;;0.60;0.60;;;11.90;99.90;;;;;;5247151;28;20039;-78
2022/04/28 06:20:53;;;;;;;1.25;1.25;;;12.10;99.90;;;;;;5226077;28;20039;-78
2022/04/28 06:23:27;;;;;;;0.70;0.70;;;12.20;99.90;;;;;;5177252;28;20041;-79
2022/04/28 06:26:03;;;;;;;0.90;0.90;;;12.30;99.90;;;;;;5193710;28;20029;-77
2022/04/28 06:28:34;;;;;;;0.68;0.68;;;12.50;99.90;;;;;;5226989;28;20020;-77
2022/04/28 06:31:08;;;;;;;0.73;0.73;;;12.50;99.90;;;;;;5230210;28;20041;-76
2022/04/28 06:33:42;;;;;;;1.55;1.50;;;12.60;99.90;;;;;;5208870;28;20032;-76
2022/04/28 06:36:16;;;;;;;1.00;1.00;;;12.80;99.90;;;;;;5248447;28;20042;-79
2022/04/28 06:38:48;;;;;;;0.88;0.88;;;12.80;99.90;;;;;;5249854;28;20054;-78
2022/04/28 06:41:22;;;;;;;1.92;1.83;;;13.20;99.90;;;;;;5231802;28;20444;-79
2022/04/28 06:43:55;;;;;;;0.90;0.90;;;13.20;99.90;;;;;;5248753;28;20032;-75
2022/04/28 06:46:32;;;;;;;1.42;1.42;;;13.50;99.90;;;;;;5226114;28;20025;-79
2022/04/28 06:49:06;;;;;;;1.58;1.52;;;13.50;99.90;;;;;;5248812;28;20020;-76
2022/04/28 06:51:37;;;;;;;1.10;1.10;;;13.40;99.90;;;;;;5243193;28;20218;-77
2022/04/28 06:54:09;;;;;;;1.02;1.02;;;13.30;99.90;;;;;;5242585;28;20048;-78
2022/04/28 06:56:43;;;;;;;3.92;1.17;;;13.00;99.90;;;;;;5242104;28;20028;-77
2022/04/28 06:59:14;;;;;;;1.83;1.73;;;13.10;99.90;;;;;;5207062;28;20044;-76
2022/04/28 07:01:46;;;;;;;1.05;1.05;;;13.00;99.90;;;;;;5235921;28;20033;-77
2022/04/28 07:04:17;;;;;;;1.17;1.17;;;13.00;99.90;;;;;;5221685;28;20028;-76
2022/04/28 07:06:48;;;;;;;0.82;0.82;;;13.00;99.90;;;;;;5230183;28;20039;-77
2022/04/28 07:09:22;;;;;;;0.77;0.77;;;13.00;99.90;;;;;;5241492;28;20021;-77
2022/04/28 07:11:56;;;;;;;2.03;1.93;;;13.10;99.90;;;;;;5241225;28;20409;-77
2022/04/28 07:14:28;;;;;;;0.82;0.82;;;13.10;99.90;;;;;;5225838;28;20028;-76
2022/04/28 07:17:02;;;;;;;0.98;0.98;;;13.40;99.90;;;;;;5224503;28;20024;-77
2022/04/28 07:19:35;;;;;;;1.25;1.25;;;13.70;99.90;;;;;;5257853;28;20032;-77
2022/04/28 07:22:06;;;;;;;1.52;1.42;;;13.70;99.90;;;;;;5263753;28;20039;-77
2022/04/28 07:24:41;;;;;;;0.80;0.80;;;13.50;99.90;;;;;;5264769;28;20369;-76
2022/04/28 07:27:12;;;;;;;0.85;0.85;;;13.90;99.90;;;;;;5243240;28;20364;-75
2022/04/28 07:29:46;;;;;;;0.57;0.57;;;14.20;99.90;;;;;;5226364;28;20029;-75
2022/04/28 07:32:17;;;;;;;1.20;1.20;;;14.30;99.90;;;;;;5225996;28;20047;-78
2022/04/28 07:34:50;;;;;;;1.20;1.20;;;14.20;99.90;;;;;;5243405;28;20039;-78
2022/04/28 07:37:22;;;;;;;1.00;1.00;;;14.20;99.90;;;;;;5243729;28;20040;-77
2022/04/28 07:39:53;;;;;;;1.02;1.02;;;14.20;99.90;;;;;;5244101;28;20343;-76
2022/04/28 07:42:30;;;;;;;1.05;1.05;;;14.00;99.90;;;;;;5243988;28;20328;-76
2022/04/28 07:45:01;;;;;;;1.10;1.10;;;14.10;99.90;;;;;;5224408;28;20031;-76
2022/04/28 07:47:33;;;;;;;1.00;1.00;;;14.20;99.90;;;;;;5208615;28;20050;-78
2022/04/28 07:50:04;;;;;;;1.08;1.08;;;14.60;99.90;;;;;;5263454;28;20194;-79
2022/04/28 07:52:41;;;;;;;0.70;0.70;;;14.90;99.90;;;;;;5241477;28;20279;-75
2022/04/28 07:55:13;;;;;;;0.70;0.70;;;14.70;99.90;;;;;;5223979;28;20032;-78
2022/04/28 07:57:46;;;;;;;0.80;0.80;;;14.70;99.90;;;;;;5226240;28;20028;-78
2022/04/28 08:00:18;;;;;;;1.27;1.27;;;14.90;99.90;;;;;;5243504;28;20282;-78
2022/04/28 08:02:50;;;;;;;0.88;0.88;;;15.20;99.90;;;;;;5206919;28;20262;-78
2022/04/28 08:05:28;;;;;;;1.00;1.00;;;15.30;99.90;;;;;;5230712;28;20296;-78
2022/04/28 08:08:02;;;;;;;1.05;1.05;;;14.90;99.90;;;;;;5240444;28;20032;-78
2022/04/28 08:10:36;;;;;;;1.08;1.08;;;14.80;99.90;;;;;;5222781;28;20062;-78
2022/04/28 08:13:09;;;;;;;1.42;1.33;;;14.60;99.90;;;;;;5241262;28;20147;-77
2022/04/28 08:15:41;;;;;;;0.80;0.80;;;14.70;99.90;;;;;;5241061;28;20020;-79
2022/04/28 08:18:13;;;;;;;0.70;0.70;;;14.90;99.90;;;;;;5238329;28;20048;-76
2022/04/28 08:20:48;;;;;;;1.20;1.20;;;15.00;99.90;;;;;;5238781;28;20317;-77
2022/04/28 08:23:22;;;;;;;1.95;1.15;;;15.10;99.90;;;;;;5223569;28;20040;-75
2022/04/28 08:26:01;;;;;;;2.22;2.05;;;14.90;99.90;;;;;;5222545;28;20037;-77
2022/04/28 08:28:36;;;;;;;1.20;1.20;;;15.30;99.90;;;;;;5240148;28;20333;-78
2022/04/28 08:31:07;;;;;;;;;;;15.30;99.90;;;;;;5223145;28;20028;-77
2022/04/28 08:33:43;;;;;;;1.20;1.20;;;15.10;99.90;;;;;;5206297;28;20137;-78
2022/04/28 08:36:15;;;;;;;0.82;0.82;;;15.20;99.90;;;;;;5240332;28;20020;-77
2022/04/28 08:38:47;;;;;;;0.90;0.90;;;15.20;99.90;;;;;;5222679;28;20036;-77
2022/04/28 08:41:32;;;;;;;0.88;0.88;;;15.30;99.90;;;;;;5222305;28;20033;-78
2022/04/28 08:44:05;;;;;;;1.10;1.10;;;15.40;99.90;;;;;;5240170;28;20022;-76
2022/04/28 08:46:52;;;;;;;0.95;0.95;;;15.60;99.90;;;;;;5240305;28;20042;-78
2022/04/28 08:49:29;;;;;;;1.60;1.50;;;15.10;99.90;;;;;;5242225;28;20046;-75
2022/04/28 08:52:06;;;;;;;0.80;0.80;;;15.80;99.90;;;;;;5220055;28;20059;-77
2022/04/28 08:54:43;;;;;;;0.95;0.95;;;15.10;99.90;;;;;;5220223;28;20028;-76
2022/04/28 08:57:16;;;;;;;1.42;1.42;;;15.90;99.90;;;;;;5204399;28;20335;-77
2022/04/28 08:59:50;;;;;;;1.50;1.40;;;15.90;99.90;;;;;;5223353;28;20033;-75
2022/04/28 09:02:32;;;;;;;0.90;0.90;;;15.80;99.90;;;;;;5223503;28;20033;-76
2022/04/28 09:05:07;;;;;;;1.10;1.02;;;16.10;99.90;;;;;;5211708;28;20056;-75
2022/04/28 09:07:44;;;;;;;1.83;1.73;;;16.50;99.90;;;;;;5221661;28;20031;-76
2022/04/28 09:10:30;;;;;;;1.27;1.27;;;16.60;99.90;;;;;;5218733;28;20051;-78
2022/04/28 09:15:55;;;;;;;0.63;0.63;;;17.00;99.90;;;;;;5221805;28;20029;-76
2022/04/28 09:18:26;;;;;;;1.15;1.15;;;16.60;99.90;;;;;;5186647;28;20028;-77
2022/04/28 09:20:58;;;;;;;1.65;1.55;;;16.40;99.90;;;;;;5221607;28;20035;-77
2022/04/28 09:23:30;;;;;;;1.02;1.02;;;16.00;99.90;;;;;;5203228;28;20047;-76
2022/04/28 09:26:05;;;;;;;0.90;0.90;;;15.90;99.90;;;;;;5222702;28;20039;-77
2022/04/28 09:28:41;;;;;;;1.40;1.40;;;16.00;99.90;;;;;;5222471;28;20048;-76
2022/04/28 09:31:13;;;;;;;0.82;0.82;;;16.10;99.90;;;;;;5221720;28;20425;-76
2022/04/28 09:33:50;;;;;;;1.00;1.00;;;16.70;99.90;;;;;;5199381;28;20021;-77
2022/04/28 09:36:24;;;;;;;0.95;0.95;;;17.00;99.90;;;;;;5220136;28;20021;-77
2022/04/28 09:38:58;;;;;;;2.13;2.03;;;16.80;99.90;;;;;;5188476;28;20337;-75
2022/04/28 09:44:22;;;;;;;0.90;0.90;;;16.60;99.90;;;;;;5205318;28;20262;-76
2022/04/28 09:46:56;;;;;;;1.52;1.42;;;16.60;99.90;;;;;;5223500;28;20029;-76
2022/04/28 09:49:30;;;;;;;1.15;1.15;;;16.90;99.90;;;;;;5224195;28;20035;-77
2022/04/28 09:52:02;;;;;;;1.87;1.77;;;17.00;99.90;;;;;;5222747;28;20036;-77
2022/04/28 09:54:39;;;;;;;1.33;1.23;;;17.50;99.90;;;;;;5229871;28;20278;-78
2022/04/28 09:57:14;;;;;;;1.38;1.38;;;17.70;99.90;;;;;;5212283;28;20258;-78
2022/04/28 09:59:47;;;;;;;1.77;1.70;;;17.30;99.90;;;;;;5221850;28;20041;-78
2022/04/28 10:02:26;;;;;;;7.32;1.95;;;17.20;99.90;;;;;;5224026;28;20306;-77
2022/04/28 10:05:01;;;;;;;1.08;1.08;;;17.20;99.90;;;;;;5232243;28;20074;-78
2022/04/28 10:07:36;;;;;;;1.50;1.48;;;17.30;99.90;;;;;;5206715;28;20036;-76
2022/04/28 10:10:08;;;;;;;2.67;1.17;;;16.70;99.90;;;;;;5243035;28;20047;-74
2022/04/28 10:12:39;;;;;;;4.00;2.40;;;16.80;99.90;;;;;;5233241;28;20028;-75
2022/04/28 10:15:13;;;;;;;0.90;0.90;;;17.10;99.90;;;;;;5242010;28;20078;-78
2022/04/28 10:17:53;;;;;;;1.77;1.67;;;17.20;99.90;;;;;;5242849;28;20021;-78
2022/04/28 10:20:50;;;;;;;1.00;1.00;;;17.00;99.90;;;;;;5222760;28;20031;-78
2022/04/28 10:35:02;;;;;;;1.08;1.08;;;17.10;99.90;;;;;;5233714;28;20032;-77
2022/04/28 10:37:45;;;;;;;1.45;1.35;;;17.40;99.90;;;;;;5224140;28;20130;-78
2022/04/28 10:40:22;;;;;;;2.15;2.03;;;16.70;99.90;;;;;;5242940;28;20023;-78
2022/04/28 10:42:59;;;;;;;1.90;1.80;;;16.80;99.90;;;;;;5243025;28;20035;-78
2022/04/28 10:45:41;;;;;;;1.48;1.42;;;17.20;99.90;;;;;;5243519;28;20034;-77
2022/04/28 10:48:33;;;;;;;1.35;1.35;;;17.50;99.90;;;;;;5224456;28;20036;-76
2022/04/28 10:51:22;;;;;;;0.80;0.80;;;18.20;99.90;;;;;;5239332;28;20045;-80
2022/04/28 10:54:03;;;;;;;0.70;0.70;;;18.50;99.90;;;;;;5239515;28;20035;-77
2022/04/28 10:56:40;;;;;;;1.08;1.08;;;18.10;99.90;;;;;;5223987;28;20028;-77
2022/04/28 10:59:32;;;;;;;1.23;1.15;;;18.70;99.90;;;;;;5224786;28;20279;-76
2022/04/28 11:02:15;;;;;;;0.90;0.90;;;17.60;99.90;;;;;;5228780;28;20017;-77
2022/04/28 11:05:37;;;;;;;1.83;1.73;;;16.70;99.90;;;;;;5221838;28;20044;-76
2022/04/28 11:08:25;;;;;;;1.08;1.08;;;18.10;99.90;;;;;;5227436;28;20048;-79
2022/04/28 11:11:12;;;;;;;1.58;1.20;;;17.50;99.90;;;;;;5237431;28;20032;-77
2022/04/28 11:13:49;;;;;;;1.42;1.33;;;17.50;99.90;;;;;;5224092;28;20083;-76
2022/04/28 11:16:20;;;;;;;2.72;1.60;;;17.40;99.90;;;;;;5242658;28;20050;-77
2022/04/28 11:18:53;;;;;;;0.88;0.88;;;18.00;99.90;;;;;;5231221;28;20032;-76
2022/04/28 11:21:27;;;;;;;0.75;0.75;;;17.70;99.90;;;;;;5223992;28;20050;-78
2022/04/28 11:23:58;;;;;;;1.08;1.08;;;17.70;99.90;;;;;;5224637;28;20074;-75
2022/04/28 11:26:39;;;;;;;2.50;1.52;;;17.20;99.90;;;;;;5207533;28;20752;-74
2022/04/28 11:29:10;;;;;;;1.55;1.48;;;17.60;99.90;;;;;;5234943;28;20032;-77
2022/04/28 11:31:47;;;;;;;1.42;1.33;;;17.50;99.90;;;;;;5263083;28;20057;-77
2022/04/28 11:34:19;;;;;;;1.35;1.35;;;18.80;99.90;;;;;;5263211;28;20024;-77
2022/04/28 11:36:55;;;;;;;0.70;0.70;;;19.80;99.90;;;;;;5241407;28;20195;-76
2022/04/28 11:39:33;;;;;;;1.40;1.40;;;20.60;99.90;;;;;;5263160;28;20027;-77
2022/04/28 11:42:09;;;;;;;0.60;0.60;;;20.30;99.90;;;;;;5257149;28;20050;-76
2022/04/28 11:44:45;;;;;;;1.50;1.40;;;18.90;99.90;;;;;;5241310;28;20040;-78
2022/04/28 11:47:20;;;;;;;1.00;0.98;;;18.00;99.90;;;;;;5224487;28;20024;-79
2022/04/28 11:49:58;;;;;;;1.13;1.10;;;17.90;99.90;;;;;;5241164;28;20218;-77
2022/04/28 11:52:37;;;;;;;0.82;0.82;;;19.00;99.90;;;;;;5221420;28;20032;-76
2022/04/28 11:55:12;;;;;;;0.65;0.65;;;18.90;99.90;;;;;;5185652;28;20048;-78
2022/04/28 11:57:44;;;;;;;0.40;0.40;;;19.50;99.90;;;;;;5175756;28;20354;-78
2022/04/28 12:00:18;;;;;;;0.65;0.65;;;19.00;99.90;;;;;;5219137;28;20032;-78
2022/04/28 12:02:50;;;;;;;0.75;0.75;;;19.10;99.90;;;;;;5220846;28;20025;-78
2022/04/28 12:05:32;;;;;;;0.90;0.90;;;19.80;99.90;;;;;;5175164;28;20053;-76
2022/04/28 12:08:04;;;;;;;1.17;1.17;;;19.80;99.90;;;;;;5219805;28;20024;-78
2022/04/28 12:19:19;;;;;;;0.90;0.90;;;20.60;99.90;;;;;;5219710;28;20352;-78
2022/04/28 12:19:20;;;;;;;0.88;0.88;;;19.80;99.90;;;;;;5219810;28;20025;-77
2022/04/28 12:21:51;;;;;;;1.10;1.10;;;20.10;99.90;;;;;;5220291;28;20037;-78
2022/04/28 12:24:35;;;;;;;0.90;0.90;;;19.60;99.90;;;;;;5195200;28;20045;-77
2022/04/28 12:27:11;;;;;;;1.00;0.95;;;19.30;99.90;;;;;;5206752;28;20312;-78
2022/04/28 12:29:52;;;;;;;1.10;1.10;;;19.70;99.90;;;;;;5175322;28;20044;-78
2022/04/28 12:32:25;;;;;;;0.70;0.70;;;20.30;99.90;;;;;;5177654;28;20331;-76
2022/04/28 12:35:03;;;;;;;0.82;0.82;;;18.80;99.90;;;;;;5160623;28;20046;-76
2022/04/28 12:37:43;;;;;;;1.02;1.02;;;18.40;99.90;;;;;;5156547;28;20026;-77
2022/04/28 12:40:23;;;;;;;3.10;1.73;;;17.70;99.90;;;;;;5161345;28;20022;-76
2022/04/28 12:42:57;;;;;;;0.70;0.70;;;18.50;99.90;;;;;;5158952;28;20062;-78
2022/04/28 12:45:41;;;;;;;0.70;0.70;;;20.70;99.90;;;;;;5176502;28;20022;-78
2022/04/28 12:48:37;;;;;;;0.77;0.77;;;21.40;99.90;;;;;;5176054;28;20054;-77
2022/04/28 12:51:17;;;;;;;0.80;0.80;;;20.10;99.90;;;;;;5185922;28;20079;-78
2022/04/28 12:53:58;;;;;;;0.80;0.80;;;19.40;99.90;;;;;;5183738;28;20038;-79
2022/04/28 12:56:31;;;;;;;0.47;0.47;;;19.20;99.90;;;;;;5155083;28;20046;-78
2022/04/28 12:59:10;;;;;;;1.05;0.90;;;18.40;99.90;;;;;;5139272;28;20040;-77
2022/04/28 13:01:49;;;;;;;1.17;1.17;;;17.60;99.90;;;;;;5163230;28;20042;-78
2022/04/28 13:04:22;;;;;;;0.60;0.60;;;17.50;99.90;;;;;;5148208;28;20041;-77
2022/04/28 13:06:58;;;;;;;0.68;0.68;;;17.30;99.90;;;;;;5191421;28;20059;-78
2022/04/28 13:09:35;;;;;;;1.20;1.20;;;17.30;99.90;;;;;;5185270;28;20037;-77
2022/04/28 13:12:06;;;;;;;0.75;0.75;;;17.50;99.90;;;;;;5192619;28;20372;-76
2022/04/28 13:14:43;;;;;;;1.42;1.33;;;17.60;99.90;;;;;;5208874;28;20032;-76
2022/04/28 13:17:17;;;;;;;1.20;1.10;;;17.70;99.90;;;;;;5208548;28;20032;-76
2022/04/28 13:19:49;;;;;;;0.65;0.65;;;17.70;99.90;;;;;;5225807;28;20029;-78
2022/04/28 13:22:23;;;;;;;0.90;0.90;;;18.30;99.90;;;;;;5224172;28;20020;-77
2022/04/28 13:24:54;;;;;;;1.10;1.10;;;19.30;99.90;;;;;;5224006;28;20036;-76
2022/04/28 13:27:25;;;;;;;0.60;0.60;;;21.00;99.90;;;;;;5224060;28;20330;-77
2022/04/28 13:29:59;;;;;;;0.63;0.63;;;22.10;99.90;;;;;;5205408;28;20242;-79
2022/04/28 13:32:30;;;;;;;0.80;0.80;;;21.70;99.90;;;;;;5222397;28;20025;-77
2022/04/28 13:35:07;;;;;;;0.88;0.88;;;20.60;99.90;;;;;;5221784;28;20293;-77
2022/04/28 13:37:38;;;;;;;3.42;2.63;;;19.50;99.90;;;;;;5205570;28;20048;-77
2022/04/28 13:40:10;;;;;;;0.73;0.73;;;19.10;99.90;;;;;;5228033;28;20023;-79
2022/04/28 13:42:41;;;;;;;1.00;1.00;;;18.50;99.90;;;;;;5227741;28;20017;-78
2022/04/28 13:45:12;;;;;;;0.90;0.90;;;18.10;99.90;;;;;;5224291;28;20089;-79
2022/04/28 13:47:48;;;;;;;0.95;0.95;;;18.00;99.90;;;;;;5224614;28;20056;-78
2022/04/28 13:50:22;;;;;;;0.70;0.70;;;17.90;99.90;;;;;;5225394;28;20154;-76
2022/04/28 13:52:54;;;;;;;0.70;0.70;;;17.50;99.90;;;;;;5243854;28;20023;-76
2022/04/28 13:55:25;;;;;;;0.50;0.50;;;17.20;99.90;;;;;;5224970;28;20039;-76
2022/04/28 13:57:59;;;;;;;1.00;1.00;;;17.30;99.90;;;;;;5244093;28;20032;-79
2022/04/28 14:00:30;;;;;;;0.60;0.60;;;17.40;99.90;;;;;;5207098;28;20024;-77
2022/04/28 14:03:03;;;;;;;0.52;0.52;;;19.20;99.90;;;;;;5243165;28;20444;-76
2022/04/28 14:05:34;;;;;;;1.10;1.10;;;21.00;99.90;;;;;;5230939;28;20057;-78
2022/04/28 14:08:06;;;;;;;1.00;1.00;;;21.50;99.90;;;;;;5243368;28;20024;-77